STN weather

London Stansted Airport
London, England, United Kingdom

Public forecast

Using degrees Celsius for public forecast. Weather courtesy of forecast.io.

METAR (pilot weather report)

Retrieved 2018/02/18 23:20 UTC (31 minutes ago):

EGSS 182320Z AUTO 17005KT 9999 BKN014 05/04 Q1019

TAF (pilot weather forecast)

Retrieved 2018/02/18 18:15 UTC (6 hours ago):

TAF EGSS 181657Z 1818/1924 15004KT 9999 OVC035 BECMG 1821/1824 BKN010 BECMG 1900/1903 5000 -RADZ BKN005 TEMPO 1903/1924 2000 RADZ BKN002 PROB40 1904/1912 0300 FG OVC000 PROB30 1918/1924 0300 FG OVC000